sim
Sign-in with your pilot id or email,
or register
Callsign
Passwort

Schedule Details

Flight Number: OEO1605
Departure: Bordeaux Merignac Airport (LFBD) at 08:10
Arrival: Munich Airport (EDDM) at 10:05

Weather Information
Getting current METAR information for LFBD 281230Z AUTO 28011KT 9999 BKN043 19/08 Q1019 NOSIG
Getting current METAR information for EDDM 281250Z 29003KT 260V320 9999 -RA FEW025 BKN040 10/07 Q1012 NOSIG

Schedule Frequency

Route Map